createdAt,value
2022-11-05T05:02:52.715Z,19.30
2022-11-05T05:06:55.348Z,18.17
2022-11-05T05:11:02.238Z,18.73
2022-11-05T05:15:05.562Z,12.95
2022-11-05T05:19:09.490Z,12.65
2022-11-05T05:23:12.451Z,12.02
2022-11-05T05:27:15.442Z,15.00
2022-11-05T05:31:18.013Z,12.90
2022-11-05T05:35:21.960Z,15.20
2022-11-05T05:39:24.632Z,15.40
2022-11-05T05:43:27.353Z,19.73
2022-11-05T05:47:29.947Z,14.30
2022-11-05T05:51:33.856Z,17.13
2022-11-05T05:55:36.519Z,16.33
2022-11-05T05:59:39.089Z,15.37
2022-11-05T06:03:41.821Z,16.45
2022-11-05T06:07:45.787Z,17.57
2022-11-05T06:11:48.447Z,15.68
2022-11-05T06:15:51.103Z,16.30
2022-11-05T06:19:53.697Z,16.60
2022-11-05T06:23:57.634Z,15.80
2022-11-05T06:28:00.772Z,14.40
2022-11-05T06:32:03.385Z,15.65
2022-11-05T06:36:07.577Z,21.53
2022-11-05T06:40:12.316Z,14.43
2022-11-05T06:44:14.911Z,15.43
2022-11-05T06:48:17.506Z,12.33
2022-11-05T06:52:20.926Z,15.47
2022-11-05T06:56:25.343Z,14.65
2022-11-05T07:00:28.007Z,13.10
2022-11-05T07:04:30.642Z,14.80
2022-11-05T07:08:34.189Z,15.73
2022-11-05T07:16:40.546Z,13.77
2022-11-05T07:20:43.208Z,13.80
2022-11-05T07:24:47.304Z,18.60
2022-11-05T07:28:51.468Z,14.23
2022-11-05T07:32:54.122Z,13.70
2022-11-05T07:36:56.758Z,16.27
2022-11-05T07:41:00.400Z,15.07
2022-11-05T07:45:04.958Z,16.95
2022-11-05T07:49:07.586Z,18.88
2022-11-05T07:53:12.519Z,16.73
2022-11-05T07:57:15.311Z,15.48
2022-11-05T08:01:19.439Z,20.70
2022-11-05T08:05:22.227Z,22.13
2022-11-05T08:09:24.828Z,22.17
2022-11-05T08:13:27.438Z,20.37
2022-11-05T08:17:31.422Z,19.57
2022-11-05T08:21:33.996Z,16.50
2022-11-05T08:25:36.868Z,21.52
2022-11-05T08:29:39.444Z,17.45
2022-11-05T08:33:43.637Z,22.83
2022-11-05T08:37:46.271Z,21.00
2022-11-05T08:41:50.095Z,18.47
2022-11-05T08:45:54.034Z,19.63
2022-11-05T08:49:57.954Z,17.67
2022-11-05T08:54:00.564Z,17.73
2022-11-05T08:58:04.906Z,14.33
2022-11-05T09:02:07.839Z,19.90
2022-11-05T09:06:11.937Z,16.40
2022-11-05T09:10:14.601Z,18.17
2022-11-05T09:14:17.245Z,18.07
2022-11-05T09:18:21.440Z,14.53
2022-11-05T09:22:25.552Z,12.93
2022-11-05T09:26:28.175Z,14.18
2022-11-05T09:30:30.783Z,17.23
2022-11-05T09:34:33.692Z,15.17
2022-11-05T09:38:37.647Z,17.63
2022-11-05T09:42:43.626Z,17.00
2022-11-05T09:46:50.949Z,16.13
2022-11-05T09:50:54.617Z,22.92
2022-11-05T09:54:59.302Z,24.48
2022-11-05T09:59:07.217Z,20.20
2022-11-05T10:03:15.042Z,19.30
2022-11-05T10:07:22.281Z,20.60
2022-11-05T10:11:32.705Z,14.23
2022-11-05T10:15:40.389Z,19.42
2022-11-05T10:19:47.030Z,13.85
2022-11-05T10:23:49.910Z,18.60
2022-11-05T10:27:55.904Z,18.00
2022-11-05T10:32:00.949Z,17.63
2022-11-05T10:36:07.086Z,14.23
2022-11-05T10:40:17.481Z,18.92
2022-11-05T10:44:36.706Z,14.55
2022-11-05T10:48:52.986Z,19.13
2022-11-05T10:52:59.758Z,15.30
2022-11-05T10:57:24.822Z,15.10
2022-11-05T11:01:30.467Z,13.07
2022-11-05T11:05:36.193Z,10.57
2022-11-05T11:09:39.489Z,9.93
2022-11-05T11:13:59.105Z,11.02
2022-11-05T11:18:27.957Z,8.13
2022-11-05T11:22:30.586Z,10.50
2022-11-05T11:26:34.913Z,14.40
2022-11-05T11:30:37.593Z,9.13
2022-11-05T11:34:43.452Z,9.47
2022-11-05T11:38:47.078Z,8.23
2022-11-05T11:42:54.401Z,10.43
2022-11-05T11:47:01.088Z,4.43
2022-11-05T11:51:18.237Z,7.70
2022-11-05T11:55:23.129Z,6.43
2022-11-05T11:59:53.851Z,5.65
2022-11-05T12:03:56.079Z,6.22
2022-11-05T12:08:11.149Z,8.07
2022-11-05T12:12:15.391Z,5.63
2022-11-05T12:16:30.330Z,7.13
2022-11-05T12:20:57.983Z,4.30
2022-11-05T12:25:22.547Z,10.20
2022-11-05T12:29:49.283Z,4.13
2022-11-05T12:34:03.415Z,6.93
2022-11-05T12:38:16.281Z,2.58
2022-11-05T12:42:33.933Z,3.77
2022-11-05T12:46:41.020Z,5.20
2022-11-05T12:50:46.356Z,4.70
2022-11-05T12:55:01.023Z,5.75
2022-11-05T12:59:12.162Z,5.63
2022-11-05T13:03:32.632Z,3.92
2022-11-05T13:07:40.070Z,5.20
2022-11-05T13:11:48.049Z,4.95
2022-11-05T13:15:55.875Z,7.68
2022-11-05T13:20:03.848Z,5.13
2022-11-05T13:24:13.633Z,5.60
2022-11-05T13:28:22.916Z,4.95
2022-11-05T13:32:31.154Z,3.85
2022-11-05T13:36:57.114Z,2.78
2022-11-05T13:41:13.289Z,3.58
2022-11-05T13:45:53.428Z,2.95
2022-11-05T13:50:14.674Z,3.40
2022-11-05T13:55:08.128Z,3.00
2022-11-05T13:59:55.428Z,1.30
2022-11-05T14:03:58.483Z,2.50
2022-11-05T14:08:10.150Z,2.70
2022-11-05T14:12:21.573Z,2.30
2022-11-05T14:16:26.436Z,6.20
2022-11-05T14:20:57.535Z,4.03
2022-11-05T14:25:02.586Z,2.63
2022-11-05T14:29:38.189Z,4.30
2022-11-05T14:33:40.986Z,3.47
2022-11-05T14:37:52.831Z,1.48
2022-11-05T14:42:03.604Z,2.47
2022-11-05T14:46:07.861Z,5.00
2022-11-05T14:50:18.657Z,4.40
2022-11-05T14:54:24.034Z,5.13
2022-11-05T14:58:36.902Z,4.07
2022-11-05T15:02:39.604Z,3.80
2022-11-05T15:07:33.142Z,4.82
2022-11-05T15:11:39.817Z,5.22
2022-11-05T15:15:47.946Z,4.25
2022-11-05T15:19:53.034Z,3.15
2022-11-05T15:23:57.748Z,3.25
2022-11-05T15:28:06.280Z,2.03
2022-11-05T15:32:17.345Z,3.22
2022-11-05T15:36:24.676Z,4.60
2022-11-05T15:40:31.823Z,4.03
2022-11-05T15:44:41.313Z,3.88
2022-11-05T15:48:49.820Z,4.32
2022-11-05T15:52:54.606Z,4.32
2022-11-05T15:56:59.629Z,4.85
2022-11-05T16:01:02.272Z,5.55
2022-11-05T16:05:13.461Z,5.07
2022-11-05T16:09:23.023Z,4.43
2022-11-05T16:13:33.124Z,3.30
2022-11-05T16:17:47.575Z,2.17
2022-11-05T16:21:57.694Z,3.08
2022-11-05T16:26:01.869Z,4.57
2022-11-05T16:30:04.987Z,6.65
2022-11-05T16:34:07.946Z,4.10
2022-11-05T16:38:14.295Z,5.50
2022-11-05T16:42:38.883Z,5.05
2022-11-05T16:46:45.159Z,3.17
2022-11-05T16:50:48.144Z,2.58
2022-11-05T16:54:52.097Z,5.13
2022-11-05T16:58:54.871Z,4.60
2022-11-05T17:02:57.691Z,5.78
2022-11-05T17:07:00.621Z,5.20
2022-11-05T17:11:04.971Z,4.55
2022-11-05T17:15:17.820Z,4.30
2022-11-05T17:19:20.453Z,3.63
2022-11-05T17:23:26.614Z,2.53
2022-11-05T17:27:30.609Z,5.07
2022-11-05T17:31:33.333Z,7.07
2022-11-05T17:35:38.876Z,8.50
2022-11-05T17:39:41.529Z,5.45
2022-11-05T17:43:45.855Z,3.87
2022-11-05T17:47:48.440Z,5.70
2022-11-05T17:51:51.182Z,4.13
2022-11-05T17:55:53.828Z,6.03
2022-11-05T17:59:58.372Z,10.97
2022-11-05T18:04:07.266Z,16.50
2022-11-05T18:08:12.459Z,10.95
2022-11-05T18:12:15.101Z,13.35
2022-11-05T18:16:19.077Z,20.83
2022-11-05T18:20:21.922Z,16.17
2022-11-05T18:24:24.658Z,15.70
2022-11-05T18:28:29.890Z,11.83
2022-11-05T18:32:34.171Z,9.80
2022-11-05T18:36:37.077Z,9.85
2022-11-05T18:40:40.072Z,8.50
2022-11-05T18:44:42.788Z,10.35
2022-11-05T18:48:47.113Z,9.50
2022-11-05T18:52:49.684Z,12.20
2022-11-05T18:56:52.442Z,11.23
2022-11-05T19:00:55.057Z,23.17
2022-11-05T19:09:21.674Z,8.38
2022-11-05T19:13:24.316Z,9.73
2022-11-05T19:17:27.001Z,6.60
2022-11-05T19:21:31.714Z,6.33
2022-11-05T19:25:34.402Z,4.63
2022-11-05T19:29:37.046Z,7.40
2022-11-05T19:33:39.675Z,7.77
2022-11-05T19:37:43.915Z,5.63
2022-11-05T19:41:47.745Z,6.78
2022-11-05T19:45:50.436Z,7.00
2022-11-05T19:49:53.112Z,10.23
2022-11-05T19:53:57.673Z,8.27
2022-11-05T19:58:00.441Z,10.32
2022-11-05T20:02:03.232Z,13.03
2022-11-05T20:06:08.711Z,13.70
2022-11-05T20:10:12.716Z,13.15
2022-11-05T20:14:15.416Z,14.63
2022-11-05T20:18:18.320Z,13.33
2022-11-05T20:22:21.161Z,13.98
2022-11-05T20:26:25.183Z,14.57
2022-11-05T20:30:27.891Z,21.42
2022-11-05T20:34:30.985Z,14.00
2022-11-05T20:38:34.231Z,11.25
2022-11-05T20:42:38.277Z,13.30
2022-11-05T20:46:41.337Z,11.02
2022-11-05T20:50:44.976Z,10.65
2022-11-05T20:54:47.937Z,7.25
2022-11-05T20:58:52.738Z,9.75
2022-11-05T21:02:55.535Z,11.80
2022-11-05T21:06:58.263Z,7.45
2022-11-05T21:11:01.603Z,11.80
2022-11-05T21:15:06.657Z,8.43
2022-11-05T21:19:09.623Z,11.25
2022-11-05T21:23:12.420Z,8.60
2022-11-05T21:27:15.027Z,12.05
2022-11-05T21:31:19.101Z,10.40
2022-11-05T21:35:21.741Z,17.45
2022-11-05T21:39:24.473Z,9.83
2022-11-05T21:43:27.073Z,12.80
2022-11-05T21:47:31.759Z,9.33
2022-11-05T21:51:52.275Z,13.07
2022-11-05T21:56:12.567Z,13.35
